sensor_id;sensor_type;location;lat;lon;timestamp;temperature;humidity
318;DHT22;146;53.448;10.228;2024-01-30T00:02:32;4.00;1.00
318;DHT22;146;53.448;10.228;2024-01-30T00:05:20;4.00;1.00
318;DHT22;146;53.448;10.228;2024-01-30T00:08:10;4.00;1.00
318;DHT22;146;53.448;10.228;2024-01-30T00:11:00;3.90;1.00
318;DHT22;146;53.448;10.228;2024-01-30T00:13:48;4.00;1.00
318;DHT22;146;53.448;10.228;2024-01-30T00:16:38;3.90;1.00
318;DHT22;146;53.448;10.228;2024-01-30T00:19:25;4.00;1.00
318;DHT22;146;53.448;10.228;2024-01-30T00:22:16;4.00;1.00
318;DHT22;146;53.448;10.228;2024-01-30T00:25:05;3.90;1.00
318;DHT22;146;53.448;10.228;2024-01-30T00:27:58;4.00;1.00
318;DHT22;146;53.448;10.228;2024-01-30T00:30:45;4.00;1.00
318;DHT22;146;53.448;10.228;2024-01-30T00:33:38;3.90;1.00
318;DHT22;146;53.448;10.228;2024-01-30T00:36:42;3.90;1.00
318;DHT22;146;53.448;10.228;2024-01-30T00:39:36;3.90;1.00
318;DHT22;146;53.448;10.228;2024-01-30T00:42:32;3.90;1.00
318;DHT22;146;53.448;10.228;2024-01-30T00:45:23;3.90;1.00
318;DHT22;146;53.448;10.228;2024-01-30T00:48:11;3.90;1.00
318;DHT22;146;53.448;10.228;2024-01-30T00:50:58;3.80;1.00
318;DHT22;146;53.448;10.228;2024-01-30T00:53:45;3.80;1.00
318;DHT22;146;53.448;10.228;2024-01-30T00:56:36;3.70;1.00
318;DHT22;146;53.448;10.228;2024-01-30T00:59:29;3.70;1.00
318;DHT22;146;53.448;10.228;2024-01-30T01:02:16;3.70;1.00
318;DHT22;146;53.448;10.228;2024-01-30T01:05:07;3.70;1.00
318;DHT22;146;53.448;10.228;2024-01-30T01:07:54;3.70;1.00
318;DHT22;146;53.448;10.228;2024-01-30T01:10:41;3.70;1.00
318;DHT22;146;53.448;10.228;2024-01-30T01:13:40;3.70;1.00
318;DHT22;146;53.448;10.228;2024-01-30T01:16:27;3.70;1.00
318;DHT22;146;53.448;10.228;2024-01-30T01:19:23;3.70;1.00
318;DHT22;146;53.448;10.228;2024-01-30T01:22:13;3.70;1.00
318;DHT22;146;53.448;10.228;2024-01-30T01:25:06;3.70;1.00
318;DHT22;146;53.448;10.228;2024-01-30T01:27:59;3.70;1.00
318;DHT22;146;53.448;10.228;2024-01-30T01:30:51;3.70;1.00
318;DHT22;146;53.448;10.228;2024-01-30T01:33:38;3.70;1.00
318;DHT22;146;53.448;10.228;2024-01-30T01:36:25;3.70;1.00
318;DHT22;146;53.448;10.228;2024-01-30T01:39:12;3.60;1.00
318;DHT22;146;53.448;10.228;2024-01-30T01:42:05;3.60;1.00
318;DHT22;146;53.448;10.228;2024-01-30T01:44:55;3.70;1.00
318;DHT22;146;53.448;10.228;2024-01-30T01:47:59;3.60;1.00
318;DHT22;146;53.448;10.228;2024-01-30T01:50:52;3.70;1.00
318;DHT22;146;53.448;10.228;2024-01-30T01:53:39;3.70;1.00
318;DHT22;146;53.448;10.228;2024-01-30T01:56:27;3.70;1.00
318;DHT22;146;53.448;10.228;2024-01-30T01:59:18;3.70;1.00
318;DHT22;146;53.448;10.228;2024-01-30T02:02:08;3.70;1.00
318;DHT22;146;53.448;10.228;2024-01-30T02:05:06;3.80;1.00
318;DHT22;146;53.448;10.228;2024-01-30T02:07:54;3.70;1.00
318;DHT22;146;53.448;10.228;2024-01-30T02:10:46;3.70;1.00
318;DHT22;146;53.448;10.228;2024-01-30T02:13:35;3.60;1.00
318;DHT22;146;53.448;10.228;2024-01-30T02:16:22;3.60;1.00
318;DHT22;146;53.448;10.228;2024-01-30T02:19:26;3.60;1.00
318;DHT22;146;53.448;10.228;2024-01-30T02:22:15;3.60;1.00
318;DHT22;146;53.448;10.228;2024-01-30T02:25:02;3.50;1.00
318;DHT22;146;53.448;10.228;2024-01-30T02:27:52;3.40;1.00
318;DHT22;146;53.448;10.228;2024-01-30T02:30:54;3.40;1.00
318;DHT22;146;53.448;10.228;2024-01-30T02:33:41;3.40;1.00
318;DHT22;146;53.448;10.228;2024-01-30T02:36:35;3.40;1.00
318;DHT22;146;53.448;10.228;2024-01-30T02:39:26;3.40;1.00
318;DHT22;146;53.448;10.228;2024-01-30T02:42:13;3.40;1.00
318;DHT22;146;53.448;10.228;2024-01-30T02:45:09;3.40;1.00
318;DHT22;146;53.448;10.228;2024-01-30T02:47:56;3.40;1.00
318;DHT22;146;53.448;10.228;2024-01-30T02:50:44;3.40;1.00
318;DHT22;146;53.448;10.228;2024-01-30T02:53:34;3.50;1.00
318;DHT22;146;53.448;10.228;2024-01-30T02:56:26;3.50;1.00
318;DHT22;146;53.448;10.228;2024-01-30T02:59:16;3.40;1.00
318;DHT22;146;53.448;10.228;2024-01-30T03:02:05;3.50;1.00
318;DHT22;146;53.448;10.228;2024-01-30T03:04:55;3.50;1.00
318;DHT22;146;53.448;10.228;2024-01-30T03:07:49;3.60;1.00
318;DHT22;146;53.448;10.228;2024-01-30T03:10:42;3.60;1.00
318;DHT22;146;53.448;10.228;2024-01-30T03:13:31;3.70;1.00
318;DHT22;146;53.448;10.228;2024-01-30T03:16:18;3.60;1.00
318;DHT22;146;53.448;10.228;2024-01-30T03:19:15;3.70;1.00
318;DHT22;146;53.448;10.228;2024-01-30T03:22:03;3.70;1.00
318;DHT22;146;53.448;10.228;2024-01-30T03:24:56;3.70;1.00
318;DHT22;146;53.448;10.228;2024-01-30T03:27:43;3.70;1.00
318;DHT22;146;53.448;10.228;2024-01-30T03:30:34;3.70;1.00
318;DHT22;146;53.448;10.228;2024-01-30T03:33:24;3.70;1.00
318;DHT22;146;53.448;10.228;2024-01-30T03:36:11;3.60;1.00
318;DHT22;146;53.448;10.228;2024-01-30T03:39:02;3.60;1.00
318;DHT22;146;53.448;10.228;2024-01-30T03:41:49;3.70;1.00
318;DHT22;146;53.448;10.228;2024-01-30T03:44:39;3.70;1.00
318;DHT22;146;53.448;10.228;2024-01-30T03:47:44;3.60;1.00
318;DHT22;146;53.448;10.228;2024-01-30T03:50:35;3.60;1.00
318;DHT22;146;53.448;10.228;2024-01-30T03:53:22;3.60;1.00
318;DHT22;146;53.448;10.228;2024-01-30T03:56:09;3.60;1.00
318;DHT22;146;53.448;10.228;2024-01-30T03:58:56;3.60;1.00
318;DHT22;146;53.448;10.228;2024-01-30T04:01:46;3.60;1.00
318;DHT22;146;53.448;10.228;2024-01-30T04:04:35;3.70;1.00
318;DHT22;146;53.448;10.228;2024-01-30T04:07:25;3.70;1.00
318;DHT22;146;53.448;10.228;2024-01-30T04:10:15;3.70;1.00
318;DHT22;146;53.448;10.228;2024-01-30T04:13:02;3.70;1.00
318;DHT22;146;53.448;10.228;2024-01-30T04:15:49;3.70;1.00
318;DHT22;146;53.448;10.228;2024-01-30T04:18:39;3.70;1.00
318;DHT22;146;53.448;10.228;2024-01-30T04:21:30;3.70;1.00
318;DHT22;146;53.448;10.228;2024-01-30T04:24:18;3.70;1.00
318;DHT22;146;53.448;10.228;2024-01-30T04:27:10;3.70;1.00
318;DHT22;146;53.448;10.228;2024-01-30T04:30:00;3.60;1.00
318;DHT22;146;53.448;10.228;2024-01-30T04:32:53;3.60;1.00
318;DHT22;146;53.448;10.228;2024-01-30T04:35:47;3.60;1.00
318;DHT22;146;53.448;10.228;2024-01-30T04:38:46;3.70;1.00
318;DHT22;146;53.448;10.228;2024-01-30T04:41:38;3.70;1.00
318;DHT22;146;53.448;10.228;2024-01-30T04:44:32;3.60;1.00
318;DHT22;146;53.448;10.228;2024-01-30T04:47:19;3.70;1.00
318;DHT22;146;53.448;10.228;2024-01-30T04:50:16;3.70;1.00
318;DHT22;146;53.448;10.228;2024-01-30T04:53:09;3.70;1.00
318;DHT22;146;53.448;10.228;2024-01-30T04:56:09;3.80;1.00
318;DHT22;146;53.448;10.228;2024-01-30T04:59:02;3.90;1.00
318;DHT22;146;53.448;10.228;2024-01-30T05:01:58;3.80;1.00
318;DHT22;146;53.448;10.228;2024-01-30T05:04:47;3.80;1.00
318;DHT22;146;53.448;10.228;2024-01-30T05:07:36;3.80;1.00
318;DHT22;146;53.448;10.228;2024-01-30T05:10:23;3.70;1.00
318;DHT22;146;53.448;10.228;2024-01-30T05:13:11;3.70;1.00
318;DHT22;146;53.448;10.228;2024-01-30T05:16:02;3.70;1.00
318;DHT22;146;53.448;10.228;2024-01-30T05:18:50;3.60;1.00
318;DHT22;146;53.448;10.228;2024-01-30T05:21:37;3.50;1.00
318;DHT22;146;53.448;10.228;2024-01-30T05:24:24;3.40;1.00
318;DHT22;146;53.448;10.228;2024-01-30T05:27:14;3.30;1.00
318;DHT22;146;53.448;10.228;2024-01-30T05:30:03;3.20;1.00
318;DHT22;146;53.448;10.228;2024-01-30T05:32:53;3.20;1.00
318;DHT22;146;53.448;10.228;2024-01-30T05:35:43;3.30;1.00
318;DHT22;146;53.448;10.228;2024-01-30T05:38:37;3.30;1.00
318;DHT22;146;53.448;10.228;2024-01-30T05:41:24;3.30;1.00
318;DHT22;146;53.448;10.228;2024-01-30T05:44:14;3.30;1.00
318;DHT22;146;53.448;10.228;2024-01-30T05:47:08;3.40;1.00
318;DHT22;146;53.448;10.228;2024-01-30T05:49:55;3.40;1.00
318;DHT22;146;53.448;10.228;2024-01-30T05:52:48;3.50;1.00
318;DHT22;146;53.448;10.228;2024-01-30T05:55:35;3.50;1.00
318;DHT22;146;53.448;10.228;2024-01-30T05:58:24;3.60;1.00
318;DHT22;146;53.448;10.228;2024-01-30T06:01:11;3.60;1.00
318;DHT22;146;53.448;10.228;2024-01-30T06:04:03;3.70;1.00
318;DHT22;146;53.448;10.228;2024-01-30T06:06:50;3.80;1.00
318;DHT22;146;53.448;10.228;2024-01-30T06:09:37;3.90;1.00
318;DHT22;146;53.448;10.228;2024-01-30T06:12:31;3.90;1.00
318;DHT22;146;53.448;10.228;2024-01-30T06:15:26;4.00;1.00
318;DHT22;146;53.448;10.228;2024-01-30T06:18:27;4.00;1.00
318;DHT22;146;53.448;10.228;2024-01-30T06:21:20;4.00;1.00
318;DHT22;146;53.448;10.228;2024-01-30T06:24:08;4.00;1.00
318;DHT22;146;53.448;10.228;2024-01-30T06:26:55;4.00;1.00
318;DHT22;146;53.448;10.228;2024-01-30T06:29:54;4.00;1.00
318;DHT22;146;53.448;10.228;2024-01-30T06:32:41;4.00;1.00
318;DHT22;146;53.448;10.228;2024-01-30T06:35:31;3.90;1.00
318;DHT22;146;53.448;10.228;2024-01-30T06:38:23;4.00;1.00
318;DHT22;146;53.448;10.228;2024-01-30T06:41:10;3.90;1.00
318;DHT22;146;53.448;10.228;2024-01-30T06:43:57;3.90;1.00
318;DHT22;146;53.448;10.228;2024-01-30T06:46:44;3.90;1.00
318;DHT22;146;53.448;10.228;2024-01-30T06:49:31;4.00;1.00
318;DHT22;146;53.448;10.228;2024-01-30T06:52:21;4.00;1.00
318;DHT22;146;53.448;10.228;2024-01-30T06:55:12;4.00;1.00
318;DHT22;146;53.448;10.228;2024-01-30T06:58:02;4.00;1.00
318;DHT22;146;53.448;10.228;2024-01-30T07:00:52;4.00;1.00
318;DHT22;146;53.448;10.228;2024-01-30T07:04:01;4.00;1.00
318;DHT22;146;53.448;10.228;2024-01-30T07:06:48;4.00;1.00
318;DHT22;146;53.448;10.228;2024-01-30T07:09:35;4.00;1.00
318;DHT22;146;53.448;10.228;2024-01-30T07:12:24;4.10;1.00
318;DHT22;146;53.448;10.228;2024-01-30T07:15:12;4.10;1.00
318;DHT22;146;53.448;10.228;2024-01-30T07:18:02;4.10;1.00
318;DHT22;146;53.448;10.228;2024-01-30T07:20:53;4.20;1.00
318;DHT22;146;53.448;10.228;2024-01-30T07:23:40;4.20;1.00
318;DHT22;146;53.448;10.228;2024-01-30T07:26:27;4.20;1.00
318;DHT22;146;53.448;10.228;2024-01-30T07:29:18;4.40;1.00
318;DHT22;146;53.448;10.228;2024-01-30T07:32:09;4.30;1.00
318;DHT22;146;53.448;10.228;2024-01-30T07:35:04;4.40;1.00
318;DHT22;146;53.448;10.228;2024-01-30T07:37:55;4.40;1.00
318;DHT22;146;53.448;10.228;2024-01-30T07:40:46;4.50;1.00
318;DHT22;146;53.448;10.228;2024-01-30T07:43:39;4.50;1.00
318;DHT22;146;53.448;10.228;2024-01-30T07:46:31;4.60;1.00
318;DHT22;146;53.448;10.228;2024-01-30T07:49:18;4.60;1.00
318;DHT22;146;53.448;10.228;2024-01-30T07:52:11;4.70;1.00
318;DHT22;146;53.448;10.228;2024-01-30T07:55:10;4.70;1.00
318;DHT22;146;53.448;10.228;2024-01-30T07:57:58;4.70;1.00
318;DHT22;146;53.448;10.228;2024-01-30T08:00:46;4.80;1.00
318;DHT22;146;53.448;10.228;2024-01-30T08:03:41;4.70;1.00
318;DHT22;146;53.448;10.228;2024-01-30T08:06:31;4.70;1.00
318;DHT22;146;53.448;10.228;2024-01-30T08:09:18;4.70;1.00
318;DHT22;146;53.448;10.228;2024-01-30T08:12:08;4.70;1.00
318;DHT22;146;53.448;10.228;2024-01-30T08:14:56;4.70;1.00
318;DHT22;146;53.448;10.228;2024-01-30T08:17:47;4.80;1.00
318;DHT22;146;53.448;10.228;2024-01-30T08:20:37;4.80;1.00
318;DHT22;146;53.448;10.228;2024-01-30T08:23:30;4.80;1.00
318;DHT22;146;53.448;10.228;2024-01-30T08:26:20;4.80;1.00
318;DHT22;146;53.448;10.228;2024-01-30T08:29:10;4.70;1.00
318;DHT22;146;53.448;10.228;2024-01-30T08:32:07;4.80;1.00
318;DHT22;146;53.448;10.228;2024-01-30T08:34:54;4.90;1.00
318;DHT22;146;53.448;10.228;2024-01-30T08:37:45;4.90;1.00
318;DHT22;146;53.448;10.228;2024-01-30T08:40:32;4.90;1.00
318;DHT22;146;53.448;10.228;2024-01-30T08:43:22;5.00;1.00
318;DHT22;146;53.448;10.228;2024-01-30T08:46:17;5.10;1.00
318;DHT22;146;53.448;10.228;2024-01-30T08:49:04;5.10;1.00
318;DHT22;146;53.448;10.228;2024-01-30T08:51:51;5.20;1.00
318;DHT22;146;53.448;10.228;2024-01-30T08:54:39;5.20;1.00
318;DHT22;146;53.448;10.228;2024-01-30T08:57:26;5.20;1.00
318;DHT22;146;53.448;10.228;2024-01-30T09:00:24;5.40;1.00
318;DHT22;146;53.448;10.228;2024-01-30T09:03:11;5.30;1.00
318;DHT22;146;53.448;10.228;2024-01-30T09:05:58;5.30;1.00
318;DHT22;146;53.448;10.228;2024-01-30T09:08:49;5.40;1.00
318;DHT22;146;53.448;10.228;2024-01-30T09:11:50;5.40;1.00
318;DHT22;146;53.448;10.228;2024-01-30T09:14:43;5.40;1.00
318;DHT22;146;53.448;10.228;2024-01-30T09:17:33;5.50;1.00
318;DHT22;146;53.448;10.228;2024-01-30T09:20:20;5.50;1.00
318;DHT22;146;53.448;10.228;2024-01-30T09:23:08;5.50;1.00
318;DHT22;146;53.448;10.228;2024-01-30T09:25:56;5.50;1.00
318;DHT22;146;53.448;10.228;2024-01-30T09:29:02;5.50;1.00
318;DHT22;146;53.448;10.228;2024-01-30T09:31:55;5.50;1.00
318;DHT22;146;53.448;10.228;2024-01-30T09:34:42;5.60;1.00
318;DHT22;146;53.448;10.228;2024-01-30T09:37:32;5.80;1.00
318;DHT22;146;53.448;10.228;2024-01-30T09:40:31;5.80;1.00
318;DHT22;146;53.448;10.228;2024-01-30T09:43:30;6.00;1.00
318;DHT22;146;53.448;10.228;2024-01-30T09:46:33;6.10;1.00
318;DHT22;146;53.448;10.228;2024-01-30T09:49:32;6.30;1.00
318;DHT22;146;53.448;10.228;2024-01-30T09:52:29;6.40;1.00
318;DHT22;146;53.448;10.228;2024-01-30T09:55:20;6.50;1.00
318;DHT22;146;53.448;10.228;2024-01-30T09:58:07;6.70;1.00
318;DHT22;146;53.448;10.228;2024-01-30T10:00:57;6.80;1.00
318;DHT22;146;53.448;10.228;2024-01-30T10:03:45;6.80;1.00
318;DHT22;146;53.448;10.228;2024-01-30T10:06:36;7.00;1.00
318;DHT22;146;53.448;10.228;2024-01-30T10:09:26;7.00;1.00
318;DHT22;146;53.448;10.228;2024-01-30T10:12:15;7.10;1.00
318;DHT22;146;53.448;10.228;2024-01-30T10:15:07;7.30;1.00
318;DHT22;146;53.448;10.228;2024-01-30T10:17:57;7.40;1.00
318;DHT22;146;53.448;10.228;2024-01-30T10:20:49;7.50;1.00
318;DHT22;146;53.448;10.228;2024-01-30T10:23:45;7.50;1.00
318;DHT22;146;53.448;10.228;2024-01-30T10:26:37;7.60;1.00
318;DHT22;146;53.448;10.228;2024-01-30T10:29:28;7.60;1.00
318;DHT22;146;53.448;10.228;2024-01-30T10:32:23;7.70;1.00
318;DHT22;146;53.448;10.228;2024-01-30T10:35:10;7.60;1.00
318;DHT22;146;53.448;10.228;2024-01-30T10:38:01;7.60;1.00
318;DHT22;146;53.448;10.228;2024-01-30T10:40:52;7.70;1.00
318;DHT22;146;53.448;10.228;2024-01-30T10:44:04;7.70;1.00
318;DHT22;146;53.448;10.228;2024-01-30T10:47:05;7.80;1.00
318;DHT22;146;53.448;10.228;2024-01-30T10:50:09;7.90;1.00
318;DHT22;146;53.448;10.228;2024-01-30T10:53:08;8.00;1.00
318;DHT22;146;53.448;10.228;2024-01-30T10:56:02;8.20;1.00
318;DHT22;146;53.448;10.228;2024-01-30T10:58:50;8.40;1.00
318;DHT22;146;53.448;10.228;2024-01-30T11:01:41;8.50;1.00
318;DHT22;146;53.448;10.228;2024-01-30T11:04:35;8.60;1.00
318;DHT22;146;53.448;10.228;2024-01-30T11:07:27;8.70;1.00
318;DHT22;146;53.448;10.228;2024-01-30T11:10:16;8.80;1.00
318;DHT22;146;53.448;10.228;2024-01-30T11:13:10;8.80;1.00
318;DHT22;146;53.448;10.228;2024-01-30T11:16:00;8.90;1.00
318;DHT22;146;53.448;10.228;2024-01-30T11:18:50;8.90;1.00
318;DHT22;146;53.448;10.228;2024-01-30T11:21:41;9.00;1.00
318;DHT22;146;53.448;10.228;2024-01-30T11:24:36;9.00;1.00
318;DHT22;146;53.448;10.228;2024-01-30T11:27:32;9.10;1.00
318;DHT22;146;53.448;10.228;2024-01-30T11:30:24;9.20;1.00
318;DHT22;146;53.448;10.228;2024-01-30T11:33:13;9.20;1.00
318;DHT22;146;53.448;10.228;2024-01-30T11:36:01;9.30;1.00
318;DHT22;146;53.448;10.228;2024-01-30T11:38:49;9.40;1.00
318;DHT22;146;53.448;10.228;2024-01-30T11:41:37;9.50;1.00
318;DHT22;146;53.448;10.228;2024-01-30T11:44:29;9.60;1.00
318;DHT22;146;53.448;10.228;2024-01-30T11:47:19;9.60;1.00
318;DHT22;146;53.448;10.228;2024-01-30T11:50:07;9.70;1.00
318;DHT22;146;53.448;10.228;2024-01-30T11:52:56;9.80;1.00
318;DHT22;146;53.448;10.228;2024-01-30T11:55:49;9.90;1.00
318;DHT22;146;53.448;10.228;2024-01-30T11:58:45;9.90;1.00
318;DHT22;146;53.448;10.228;2024-01-30T12:01:33;10.00;1.00
318;DHT22;146;53.448;10.228;2024-01-30T12:04:20;10.00;1.00
318;DHT22;146;53.448;10.228;2024-01-30T12:07:08;10.10;1.00
318;DHT22;146;53.448;10.228;2024-01-30T12:09:58;10.20;1.00
318;DHT22;146;53.448;10.228;2024-01-30T12:12:46;10.20;1.00
318;DHT22;146;53.448;10.228;2024-01-30T12:15:34;10.20;1.00
318;DHT22;146;53.448;10.228;2024-01-30T12:18:22;10.40;1.00
318;DHT22;146;53.448;10.228;2024-01-30T12:21:10;10.30;1.00
318;DHT22;146;53.448;10.228;2024-01-30T12:23:57;10.40;1.00
318;DHT22;146;53.448;10.228;2024-01-30T12:26:50;10.40;1.00
318;DHT22;146;53.448;10.228;2024-01-30T12:29:41;10.50;1.00
318;DHT22;146;53.448;10.228;2024-01-30T12:32:34;10.50;1.00
318;DHT22;146;53.448;10.228;2024-01-30T12:35:24;10.50;1.00
318;DHT22;146;53.448;10.228;2024-01-30T12:38:11;10.60;1.00
318;DHT22;146;53.448;10.228;2024-01-30T12:41:01;10.60;1.00
318;DHT22;146;53.448;10.228;2024-01-30T12:43:48;10.50;1.00
318;DHT22;146;53.448;10.228;2024-01-30T12:46:35;10.60;1.00
318;DHT22;146;53.448;10.228;2024-01-30T12:49:33;10.60;1.00
318;DHT22;146;53.448;10.228;2024-01-30T12:52:22;10.60;1.00
318;DHT22;146;53.448;10.228;2024-01-30T12:55:12;10.60;1.00
318;DHT22;146;53.448;10.228;2024-01-30T12:58:01;10.60;1.00
318;DHT22;146;53.448;10.228;2024-01-30T13:00:54;10.70;1.00
318;DHT22;146;53.448;10.228;2024-01-30T13:03:44;10.70;1.00
318;DHT22;146;53.448;10.228;2024-01-30T13:06:35;10.80;1.00
318;DHT22;146;53.448;10.228;2024-01-30T13:09:23;10.80;1.00
318;DHT22;146;53.448;10.228;2024-01-30T13:12:11;10.90;1.00
318;DHT22;146;53.448;10.228;2024-01-30T13:14:58;10.90;1.00
318;DHT22;146;53.448;10.228;2024-01-30T13:17:46;11.00;1.00
318;DHT22;146;53.448;10.228;2024-01-30T13:20:34;11.00;1.00
318;DHT22;146;53.448;10.228;2024-01-30T13:23:24;11.00;1.00
318;DHT22;146;53.448;10.228;2024-01-30T13:26:15;11.00;1.00
318;DHT22;146;53.448;10.228;2024-01-30T13:29:03;11.00;1.00
318;DHT22;146;53.448;10.228;2024-01-30T13:31:52;11.00;1.00
318;DHT22;146;53.448;10.228;2024-01-30T13:34:39;10.90;1.00
318;DHT22;146;53.448;10.228;2024-01-30T13:37:32;10.90;1.00
318;DHT22;146;53.448;10.228;2024-01-30T13:40:20;11.00;1.00
318;DHT22;146;53.448;10.228;2024-01-30T13:43:13;10.90;1.00
318;DHT22;146;53.448;10.228;2024-01-30T13:46:08;11.00;1.00
318;DHT22;146;53.448;10.228;2024-01-30T13:48:55;10.90;1.00
318;DHT22;146;53.448;10.228;2024-01-30T13:51:42;11.10;1.00
318;DHT22;146;53.448;10.228;2024-01-30T13:54:32;11.00;1.00
318;DHT22;146;53.448;10.228;2024-01-30T13:57:25;11.00;1.00
318;DHT22;146;53.448;10.228;2024-01-30T14:00:23;11.00;1.00
318;DHT22;146;53.448;10.228;2024-01-30T14:03:20;11.00;1.00
318;DHT22;146;53.448;10.228;2024-01-30T14:06:11;11.00;1.00
318;DHT22;146;53.448;10.228;2024-01-30T14:08:58;11.00;1.00
318;DHT22;146;53.448;10.228;2024-01-30T14:11:51;11.00;1.00
318;DHT22;146;53.448;10.228;2024-01-30T14:14:41;11.00;1.00
318;DHT22;146;53.448;10.228;2024-01-30T14:17:39;11.10;1.00
318;DHT22;146;53.448;10.228;2024-01-30T14:20:26;11.00;1.00
318;DHT22;146;53.448;10.228;2024-01-30T14:23:17;11.00;1.00
318;DHT22;146;53.448;10.228;2024-01-30T14:26:07;10.90;1.00
318;DHT22;146;53.448;10.228;2024-01-30T14:28:59;10.90;1.00
318;DHT22;146;53.448;10.228;2024-01-30T14:31:46;10.90;1.00
318;DHT22;146;53.448;10.228;2024-01-30T14:34:35;11.00;1.00
318;DHT22;146;53.448;10.228;2024-01-30T14:37:22;10.90;1.00
318;DHT22;146;53.448;10.228;2024-01-30T14:40:10;10.90;1.00
318;DHT22;146;53.448;10.228;2024-01-30T14:42:57;10.90;1.00
318;DHT22;146;53.448;10.228;2024-01-30T14:45:44;10.90;1.00
318;DHT22;146;53.448;10.228;2024-01-30T14:48:34;10.90;1.00
318;DHT22;146;53.448;10.228;2024-01-30T14:51:23;10.90;1.00
318;DHT22;146;53.448;10.228;2024-01-30T14:54:10;10.90;1.00
318;DHT22;146;53.448;10.228;2024-01-30T14:56:57;10.90;1.00
318;DHT22;146;53.448;10.228;2024-01-30T14:59:49;10.80;1.00
318;DHT22;146;53.448;10.228;2024-01-30T15:02:37;10.90;1.00
318;DHT22;146;53.448;10.228;2024-01-30T15:05:31;10.90;1.00
318;DHT22;146;53.448;10.228;2024-01-30T15:08:20;10.80;1.00
318;DHT22;146;53.448;10.228;2024-01-30T15:11:11;10.80;1.00
318;DHT22;146;53.448;10.228;2024-01-30T15:14:01;10.80;1.00
318;DHT22;146;53.448;10.228;2024-01-30T15:16:51;10.80;1.00
318;DHT22;146;53.448;10.228;2024-01-30T15:19:44;10.80;1.00
318;DHT22;146;53.448;10.228;2024-01-30T15:22:34;10.80;1.00
318;DHT22;146;53.448;10.228;2024-01-30T15:25:23;10.80;1.00
318;DHT22;146;53.448;10.228;2024-01-30T15:28:12;10.80;1.00
318;DHT22;146;53.448;10.228;2024-01-30T15:31:00;10.70;1.00
318;DHT22;146;53.448;10.228;2024-01-30T15:33:50;10.80;1.00
318;DHT22;146;53.448;10.228;2024-01-30T15:36:37;10.80;1.00
318;DHT22;146;53.448;10.228;2024-01-30T15:39:26;10.70;1.00
318;DHT22;146;53.448;10.228;2024-01-30T15:42:20;10.70;1.00
318;DHT22;146;53.448;10.228;2024-01-30T15:45:08;10.70;1.00
318;DHT22;146;53.448;10.228;2024-01-30T15:48:00;10.70;1.00
318;DHT22;146;53.448;10.228;2024-01-30T15:50:50;10.80;1.00
318;DHT22;146;53.448;10.228;2024-01-30T15:53:50;10.90;1.00
318;DHT22;146;53.448;10.228;2024-01-30T15:56:38;10.90;1.00
318;DHT22;146;53.448;10.228;2024-01-30T15:59:36;10.90;1.00
318;DHT22;146;53.448;10.228;2024-01-30T16:02:23;10.80;1.00
318;DHT22;146;53.448;10.228;2024-01-30T16:05:10;10.80;1.00
318;DHT22;146;53.448;10.228;2024-01-30T16:07:58;10.80;1.00
318;DHT22;146;53.448;10.228;2024-01-30T16:10:48;10.80;1.00
318;DHT22;146;53.448;10.228;2024-01-30T16:13:41;10.70;1.00
318;DHT22;146;53.448;10.228;2024-01-30T16:16:30;10.80;1.00
318;DHT22;146;53.448;10.228;2024-01-30T16:19:20;10.80;1.00
318;DHT22;146;53.448;10.228;2024-01-30T16:22:12;10.80;1.00
318;DHT22;146;53.448;10.228;2024-01-30T16:25:05;10.80;1.00
318;DHT22;146;53.448;10.228;2024-01-30T16:27:58;10.70;1.00
318;DHT22;146;53.448;10.228;2024-01-30T16:31:02;10.80;1.00
318;DHT22;146;53.448;10.228;2024-01-30T16:33:58;10.60;1.00
318;DHT22;146;53.448;10.228;2024-01-30T16:36:52;10.60;1.00
318;DHT22;146;53.448;10.228;2024-01-30T16:39:42;10.70;1.00
318;DHT22;146;53.448;10.228;2024-01-30T16:42:29;10.70;1.00
318;DHT22;146;53.448;10.228;2024-01-30T16:45:17;10.70;1.00
318;DHT22;146;53.448;10.228;2024-01-30T16:48:07;10.70;1.00
318;DHT22;146;53.448;10.228;2024-01-30T16:51:04;10.60;1.00
318;DHT22;146;53.448;10.228;2024-01-30T16:53:51;10.60;1.00
318;DHT22;146;53.448;10.228;2024-01-30T16:56:39;10.60;1.00
318;DHT22;146;53.448;10.228;2024-01-30T16:59:26;10.60;1.00
318;DHT22;146;53.448;10.228;2024-01-30T17:02:19;10.60;1.00
318;DHT22;146;53.448;10.228;2024-01-30T17:05:06;10.60;1.00
318;DHT22;146;53.448;10.228;2024-01-30T17:07:59;10.60;1.00
318;DHT22;146;53.448;10.228;2024-01-30T17:10:50;10.60;1.00
318;DHT22;146;53.448;10.228;2024-01-30T17:13:43;10.60;1.00
318;DHT22;146;53.448;10.228;2024-01-30T17:16:36;10.60;1.00
318;DHT22;146;53.448;10.228;2024-01-30T17:19:23;10.60;1.00
318;DHT22;146;53.448;10.228;2024-01-30T17:22:12;10.60;1.00
318;DHT22;146;53.448;10.228;2024-01-30T17:25:02;10.60;1.00
318;DHT22;146;53.448;10.228;2024-01-30T17:27:49;10.60;1.00
318;DHT22;146;53.448;10.228;2024-01-30T17:30:37;10.50;1.00
318;DHT22;146;53.448;10.228;2024-01-30T17:33:37;10.50;1.00
318;DHT22;146;53.448;10.228;2024-01-30T17:36:27;10.50;1.00
318;DHT22;146;53.448;10.228;2024-01-30T17:39:18;10.50;1.00
318;DHT22;146;53.448;10.228;2024-01-30T17:42:07;10.50;1.00
318;DHT22;146;53.448;10.228;2024-01-30T17:44:54;10.50;1.00
318;DHT22;146;53.448;10.228;2024-01-30T17:47:41;10.50;1.00
318;DHT22;146;53.448;10.228;2024-01-30T17:50:28;10.50;1.00
318;DHT22;146;53.448;10.228;2024-01-30T17:53:24;10.60;1.00
318;DHT22;146;53.448;10.228;2024-01-30T17:56:16;10.60;1.00
318;DHT22;146;53.448;10.228;2024-01-30T17:59:08;10.60;1.00
318;DHT22;146;53.448;10.228;2024-01-30T18:02:15;10.60;1.00
318;DHT22;146;53.448;10.228;2024-01-30T18:05:06;10.60;1.00
318;DHT22;146;53.448;10.228;2024-01-30T18:08:05;10.60;1.00
318;DHT22;146;53.448;10.228;2024-01-30T18:10:52;10.60;1.00
318;DHT22;146;53.448;10.228;2024-01-30T18:13:49;10.60;1.00
318;DHT22;146;53.448;10.228;2024-01-30T18:16:43;10.70;1.00
318;DHT22;146;53.448;10.228;2024-01-30T18:19:32;10.70;1.00
318;DHT22;146;53.448;10.228;2024-01-30T18:22:20;10.70;1.00
318;DHT22;146;53.448;10.228;2024-01-30T18:25:08;10.70;1.00
318;DHT22;146;53.448;10.228;2024-01-30T18:28:03;10.70;1.00
318;DHT22;146;53.448;10.228;2024-01-30T18:30:51;10.70;1.00
318;DHT22;146;53.448;10.228;2024-01-30T18:33:54;10.70;1.00
318;DHT22;146;53.448;10.228;2024-01-30T18:36:50;10.70;1.00
318;DHT22;146;53.448;10.228;2024-01-30T18:39:39;10.70;1.00
318;DHT22;146;53.448;10.228;2024-01-30T18:42:31;10.60;1.00
318;DHT22;146;53.448;10.228;2024-01-30T18:45:28;10.70;1.00
318;DHT22;146;53.448;10.228;2024-01-30T18:48:16;10.70;1.00
318;DHT22;146;53.448;10.228;2024-01-30T18:51:07;10.60;1.00
318;DHT22;146;53.448;10.228;2024-01-30T18:53:56;10.60;1.00
318;DHT22;146;53.448;10.228;2024-01-30T18:56:49;10.50;1.00
318;DHT22;146;53.448;10.228;2024-01-30T18:59:54;10.40;1.00
318;DHT22;146;53.448;10.228;2024-01-30T19:02:52;10.50;1.00
318;DHT22;146;53.448;10.228;2024-01-30T19:05:50;10.50;1.00
318;DHT22;146;53.448;10.228;2024-01-30T19:08:45;10.50;1.00
318;DHT22;146;53.448;10.228;2024-01-30T19:11:34;10.60;1.00
318;DHT22;146;53.448;10.228;2024-01-30T19:14:33;10.60;1.00
318;DHT22;146;53.448;10.228;2024-01-30T19:17:22;10.50;1.00
318;DHT22;146;53.448;10.228;2024-01-30T19:20:12;10.50;1.00
318;DHT22;146;53.448;10.228;2024-01-30T19:22:59;10.50;1.00
318;DHT22;146;53.448;10.228;2024-01-30T19:25:50;10.40;1.00